Ault, Colorado
Current Conditions -  °F | °C
As of 5:15 PM on Thursday 18 Dec 2014 (Local Time) from KGXY Reporting Station
Clear Clear  
Wind Chill: 36°   Ceiling: Unl
Heat Index: 36°   Visibility: 10mi
Dew Point: 21°   Wind: 3mph
Humidity: 56%   Direction: 150°SSE
Pressure: 30.04"   Gusts: NA
Location:  40.58°N, 104.73°W
Report Text: KGXY 190015Z AUTO 15003KT 10SM CLR 02/M06 A3004 RMK AO1
Loading
Personal Weather Stations






























Interactive Weather Map New forecast layout! Learn more

10-Day Weather Forecast

Advertisements
Track Severe Weather on mobile